createdAt,value
2023-10-11T00:00:41.050Z,8.03
2023-10-11T00:03:19.670Z,8.08
2023-10-11T00:05:48.101Z,8.13
2023-10-11T00:08:20.337Z,8.15
2023-10-11T00:10:56.576Z,8.08
2023-10-11T00:13:25.077Z,8.12
2023-10-11T00:15:53.459Z,7.96
2023-10-11T00:18:27.660Z,7.92
2023-10-11T00:20:58.519Z,7.79
2023-10-11T00:23:27.105Z,7.80
2023-10-11T00:26:01.959Z,7.64
2023-10-11T00:28:33.402Z,7.64
2023-10-11T00:31:02.227Z,7.65
2023-10-11T00:33:39.004Z,7.76
2023-10-11T00:36:07.545Z,7.71
2023-10-11T00:38:44.671Z,7.70
2023-10-11T00:41:16.767Z,7.72
2023-10-11T00:43:50.747Z,7.85
2023-10-11T00:46:20.601Z,7.80
2023-10-11T00:49:07.264Z,7.89
2023-10-11T00:51:34.301Z,7.83
2023-10-11T00:54:02.886Z,7.89
2023-10-11T00:56:33.847Z,7.92
2023-10-11T00:59:04.129Z,7.86
2023-10-11T01:01:34.430Z,7.80
2023-10-11T01:04:01.988Z,8.01
2023-10-11T01:06:30.378Z,7.87
2023-10-11T01:08:56.998Z,7.88
2023-10-11T01:11:24.242Z,7.99
2023-10-11T01:13:53.923Z,7.95
2023-10-11T01:16:27.917Z,8.05
2023-10-11T01:18:55.008Z,8.02
2023-10-11T01:21:21.818Z,8.11
2023-10-11T01:23:49.737Z,8.12
2023-10-11T01:26:16.544Z,8.14
2023-10-11T01:28:49.194Z,8.17
2023-10-11T01:31:18.411Z,8.07
2023-10-11T01:33:50.369Z,8.11
2023-10-11T01:36:22.492Z,8.27
2023-10-11T01:38:49.290Z,8.28
2023-10-11T01:41:23.742Z,8.32
2023-10-11T01:43:51.644Z,8.22
2023-10-11T01:46:26.409Z,8.27
2023-10-11T01:48:57.050Z,8.18
2023-10-11T01:51:28.662Z,8.15
2023-10-11T01:53:56.350Z,8.26
2023-10-11T01:56:25.096Z,8.28
2023-10-11T01:58:52.485Z,8.21
2023-10-11T02:01:23.701Z,8.04
2023-10-11T02:04:00.986Z,8.18
2023-10-11T02:06:33.602Z,8.14
2023-10-11T02:09:01.459Z,8.28
2023-10-11T02:11:30.784Z,8.18
2023-10-11T02:13:58.958Z,8.10
2023-10-11T02:16:26.593Z,8.29
2023-10-11T02:18:59.760Z,8.28
2023-10-11T02:21:33.228Z,8.33
2023-10-11T02:24:00.635Z,8.17
2023-10-11T02:26:35.810Z,8.23
2023-10-11T02:29:07.850Z,8.28
2023-10-11T02:31:35.325Z,8.27
2023-10-11T02:34:14.938Z,8.30
2023-10-11T02:36:46.074Z,8.36
2023-10-11T02:39:19.284Z,8.38
2023-10-11T02:41:58.736Z,8.37
2023-10-11T02:44:26.487Z,8.42
2023-10-11T02:46:54.247Z,8.17
2023-10-11T02:49:21.183Z,8.20
2023-10-11T02:51:54.669Z,8.27
2023-10-11T02:54:22.120Z,8.37
2023-10-11T02:56:48.919Z,8.45
2023-10-11T02:59:25.477Z,8.44
2023-10-11T03:02:03.006Z,8.46
2023-10-11T03:04:34.172Z,8.42
2023-10-11T03:07:01.602Z,8.49
2023-10-11T03:09:31.599Z,8.35
2023-10-11T03:11:58.362Z,8.40
2023-10-11T03:14:26.139Z,8.49
2023-10-11T03:16:57.675Z,8.61
2023-10-11T03:19:25.677Z,8.54
2023-10-11T03:21:55.298Z,8.55
2023-10-11T03:24:22.996Z,8.55
2023-10-11T03:26:49.836Z,8.52
2023-10-11T03:29:20.052Z,8.50
2023-10-11T03:31:46.937Z,8.58
2023-10-11T03:34:13.702Z,8.65
2023-10-11T03:36:53.489Z,8.55
2023-10-11T03:39:37.179Z,8.57
2023-10-11T03:42:13.366Z,8.66
2023-10-11T03:44:48.030Z,8.63
2023-10-11T03:47:16.563Z,8.63
2023-10-11T03:49:43.293Z,8.56
2023-10-11T03:52:32.024Z,8.73
2023-10-11T03:55:12.037Z,8.78
2023-10-11T03:57:43.091Z,8.69
2023-10-11T04:00:24.013Z,8.68
2023-10-11T04:02:58.992Z,8.76
2023-10-11T04:05:35.780Z,8.66
2023-10-11T04:08:07.570Z,8.67
2023-10-11T04:10:41.209Z,8.71
2023-10-11T04:13:16.183Z,8.83
2023-10-11T04:15:43.517Z,8.82
2023-10-11T04:18:34.428Z,8.84
2023-10-11T04:21:11.530Z,8.90
2023-10-11T04:23:40.942Z,9.01
2023-10-11T04:26:24.074Z,8.84
2023-10-11T04:28:53.531Z,8.91
2023-10-11T04:31:32.349Z,8.89
2023-10-11T04:34:00.992Z,8.91
2023-10-11T04:36:30.369Z,8.94
2023-10-11T04:39:14.308Z,8.90
2023-10-11T04:41:50.298Z,8.91
2023-10-11T04:44:18.731Z,8.81
2023-10-11T04:46:56.390Z,8.89
2023-10-11T04:49:26.026Z,8.82
2023-10-11T04:51:57.818Z,8.87
2023-10-11T04:54:37.428Z,8.88
2023-10-11T04:57:21.475Z,8.78
2023-10-11T04:59:48.295Z,8.89
2023-10-11T05:02:25.298Z,8.98
2023-10-11T05:04:53.159Z,9.09
2023-10-11T05:07:23.192Z,9.03
2023-10-11T05:09:58.375Z,9.05
2023-10-11T05:12:25.604Z,9.09
2023-10-11T05:14:55.219Z,8.93
2023-10-11T05:17:25.082Z,8.97
2023-10-11T05:20:06.368Z,9.07
2023-10-11T05:22:50.690Z,8.91
2023-10-11T05:25:19.304Z,9.00
2023-10-11T05:28:08.935Z,9.04
2023-10-11T05:30:36.233Z,9.03
2023-10-11T05:33:03.041Z,9.12
2023-10-11T05:35:47.736Z,9.23
2023-10-11T05:38:34.862Z,9.13
2023-10-11T05:41:31.521Z,9.13
2023-10-11T05:44:17.859Z,9.24
2023-10-11T05:47:03.367Z,9.33
2023-10-11T05:49:49.764Z,9.39
2023-10-11T05:52:17.354Z,9.25
2023-10-11T05:54:46.869Z,9.30
2023-10-11T05:57:15.224Z,9.38
2023-10-11T05:59:48.482Z,9.50
2023-10-11T06:02:15.074Z,9.47
2023-10-11T06:04:42.111Z,9.57
2023-10-11T06:07:12.812Z,9.78
2023-10-11T06:09:47.098Z,9.89
2023-10-11T06:12:24.214Z,10.05
2023-10-11T06:14:52.499Z,10.06
2023-10-11T06:17:22.466Z,10.09
2023-10-11T06:19:55.414Z,10.26
2023-10-11T06:22:23.870Z,10.34
2023-10-11T06:24:50.705Z,10.35
2023-10-11T06:27:35.808Z,10.52
2023-10-11T06:30:07.562Z,10.56
2023-10-11T06:32:37.205Z,10.66
2023-10-11T06:35:06.858Z,10.74
2023-10-11T06:37:36.334Z,10.78
2023-10-11T06:40:03.198Z,10.76
2023-10-11T06:42:32.721Z,10.96
2023-10-11T06:45:07.416Z,10.96
2023-10-11T06:47:37.052Z,10.96
2023-10-11T06:50:12.278Z,10.94
2023-10-11T06:52:44.679Z,11.06
2023-10-11T06:55:18.802Z,11.14
2023-10-11T06:57:53.693Z,11.25
2023-10-11T07:00:24.150Z,11.53
2023-10-11T07:03:08.626Z,11.80
2023-10-11T07:05:43.211Z,11.93
2023-10-11T07:08:11.258Z,12.25
2023-10-11T07:10:42.966Z,12.44
2023-10-11T07:13:13.897Z,12.35
2023-10-11T07:15:45.580Z,12.48
2023-10-11T07:18:26.532Z,12.77
2023-10-11T07:21:07.156Z,12.64
2023-10-11T07:23:57.255Z,12.75
2023-10-11T07:26:31.810Z,13.00
2023-10-11T07:29:00.736Z,13.45
2023-10-11T07:31:33.594Z,14.06
2023-10-11T07:34:03.430Z,14.41
2023-10-11T07:36:32.523Z,16.05
2023-10-11T07:39:01.678Z,15.64
2023-10-11T07:41:31.556Z,15.88
2023-10-11T07:43:58.816Z,16.68
2023-10-11T07:46:29.732Z,16.69
2023-10-11T07:49:05.175Z,17.72
2023-10-11T07:51:37.320Z,18.29
2023-10-11T07:54:20.810Z,18.07
2023-10-11T07:56:50.222Z,18.64
2023-10-11T07:59:17.214Z,19.18
2023-10-11T08:01:46.840Z,19.29
2023-10-11T08:04:22.873Z,18.92
2023-10-11T08:07:04.935Z,19.98
2023-10-11T08:09:46.989Z,20.98
2023-10-11T08:12:16.343Z,20.38
2023-10-11T08:14:47.069Z,20.56
2023-10-11T08:17:18.914Z,19.97
2023-10-11T08:19:46.408Z,20.65
2023-10-11T08:22:15.670Z,20.68
2023-10-11T08:24:47.619Z,21.12
2023-10-11T08:27:23.938Z,21.20
2023-10-11T08:30:03.510Z,20.81
2023-10-11T08:32:31.147Z,21.64
2023-10-11T08:34:57.973Z,21.89
2023-10-11T08:37:25.017Z,21.77
2023-10-11T08:39:55.594Z,22.28
2023-10-11T08:42:24.105Z,21.08
2023-10-11T08:44:52.677Z,20.17
2023-10-11T08:47:20.690Z,20.13
2023-10-11T08:49:50.401Z,19.66
2023-10-11T08:52:25.973Z,19.55
2023-10-11T08:54:52.945Z,19.23
2023-10-11T08:57:24.647Z,19.15
2023-10-11T08:59:53.088Z,19.39
2023-10-11T09:02:20.648Z,19.44
2023-10-11T09:05:08.652Z,19.43
2023-10-11T09:07:41.182Z,19.36
2023-10-11T09:10:31.373Z,19.13
2023-10-11T09:13:02.304Z,19.13
2023-10-11T09:15:42.146Z,18.92
2023-10-11T09:18:21.340Z,18.93
2023-10-11T09:20:57.060Z,18.89
2023-10-11T09:23:40.085Z,19.10
2023-10-11T09:26:09.448Z,18.92
2023-10-11T09:28:42.118Z,18.95
2023-10-11T09:31:12.106Z,19.02
2023-10-11T09:33:51.570Z,19.15
2023-10-11T09:36:23.807Z,19.20
2023-10-11T09:38:55.923Z,19.10
2023-10-11T09:41:29.508Z,19.06
2023-10-11T09:44:00.817Z,19.33
2023-10-11T09:46:31.667Z,19.54
2023-10-11T09:49:01.272Z,19.52
2023-10-11T09:51:29.489Z,19.68
2023-10-11T09:54:02.854Z,19.89
2023-10-11T09:56:56.197Z,20.04
2023-10-11T09:59:29.289Z,20.09
2023-10-11T10:02:11.034Z,20.00
2023-10-11T10:04:52.679Z,20.06
2023-10-11T10:07:38.740Z,20.12
2023-10-11T10:10:05.931Z,20.36
2023-10-11T10:12:34.431Z,20.26
2023-10-11T10:15:09.390Z,20.34
2023-10-11T10:17:39.034Z,20.43
2023-10-11T10:20:34.293Z,20.30
2023-10-11T10:23:18.295Z,20.17
2023-10-11T10:25:48.995Z,20.10
2023-10-11T10:28:33.861Z,20.13
2023-10-11T10:31:11.200Z,20.37
2023-10-11T10:33:38.814Z,20.05
2023-10-11T10:36:21.684Z,20.24
2023-10-11T10:39:26.093Z,20.37
2023-10-11T10:42:13.651Z,20.27
2023-10-11T10:44:50.747Z,20.47
2023-10-11T10:47:30.640Z,20.51
2023-10-11T10:49:58.301Z,20.62
2023-10-11T10:52:29.100Z,20.70
2023-10-11T10:55:04.627Z,20.80
2023-10-11T10:57:38.361Z,20.70
2023-10-11T11:00:08.914Z,20.52
2023-10-11T11:02:39.016Z,20.49
2023-10-11T11:05:17.172Z,20.51
2023-10-11T11:07:53.148Z,20.47
2023-10-11T11:10:26.099Z,20.50
2023-10-11T11:12:53.033Z,20.62
2023-10-11T11:15:22.553Z,20.70
2023-10-11T11:17:51.484Z,20.69
2023-10-11T11:20:30.907Z,20.71
2023-10-11T11:22:57.558Z,20.57
2023-10-11T11:25:32.446Z,20.51
2023-10-11T11:28:26.352Z,20.65
2023-10-11T11:30:53.063Z,20.72
2023-10-11T11:33:32.788Z,20.80
2023-10-11T11:35:59.385Z,20.78
2023-10-11T11:38:30.936Z,20.69
2023-10-11T11:41:14.832Z,20.74
2023-10-11T11:43:47.931Z,20.80
2023-10-11T11:46:17.201Z,20.80
2023-10-11T11:48:44.681Z,20.76
2023-10-11T11:51:15.310Z,20.91
2023-10-11T11:53:44.655Z,20.82
2023-10-11T11:56:12.755Z,20.94
2023-10-11T11:58:46.896Z,20.89
2023-10-11T12:01:17.807Z,20.96
2023-10-11T12:03:53.602Z,21.04
2023-10-11T12:06:24.731Z,21.00
2023-10-11T12:08:59.539Z,21.11
2023-10-11T12:11:32.032Z,21.23
2023-10-11T12:14:01.383Z,21.24
2023-10-11T12:16:30.645Z,21.39
2023-10-11T12:19:00.937Z,21.40
2023-10-11T12:21:30.396Z,21.45
2023-10-11T12:23:58.727Z,21.49
2023-10-11T12:26:28.256Z,21.44
2023-10-11T12:28:55.972Z,21.42
2023-10-11T12:31:22.773Z,21.40
2023-10-11T12:33:49.526Z,21.37
2023-10-11T12:36:21.615Z,21.40
2023-10-11T12:38:50.231Z,21.53
2023-10-11T12:41:17.427Z,21.59
2023-10-11T12:43:47.058Z,21.25
2023-10-11T12:46:16.993Z,21.34
2023-10-11T12:48:46.246Z,21.44
2023-10-11T12:51:12.957Z,21.44
2023-10-11T12:53:39.544Z,21.63
2023-10-11T12:56:09.142Z,21.59
2023-10-11T12:58:41.938Z,21.66
2023-10-11T13:01:15.061Z,21.64
2023-10-11T13:03:44.126Z,21.55
2023-10-11T13:06:11.703Z,21.47
2023-10-11T13:08:39.140Z,21.54
2023-10-11T13:11:14.448Z,21.51
2023-10-11T13:13:45.053Z,21.48
2023-10-11T13:16:23.752Z,21.28
2023-10-11T13:18:50.342Z,21.32
2023-10-11T13:21:18.083Z,21.44
2023-10-11T13:23:45.330Z,21.20
2023-10-11T13:26:19.674Z,21.29
2023-10-11T13:28:54.658Z,21.14
2023-10-11T13:31:21.534Z,20.93
2023-10-11T13:33:48.223Z,20.85
2023-10-11T13:36:15.423Z,21.18
2023-10-11T13:38:46.286Z,20.99
2023-10-11T13:41:13.835Z,20.94
2023-10-11T13:43:41.697Z,21.00
2023-10-11T13:46:08.958Z,21.14
2023-10-11T13:48:41.396Z,21.05
2023-10-11T13:51:10.852Z,21.18
2023-10-11T13:53:43.229Z,21.01
2023-10-11T13:56:23.186Z,21.12
2023-10-11T13:58:52.828Z,21.03
2023-10-11T14:01:47.025Z,20.86
2023-10-11T14:04:18.376Z,20.90
2023-10-11T14:07:01.373Z,20.84
2023-10-11T14:09:31.836Z,20.83
2023-10-11T14:11:58.548Z,20.86
2023-10-11T14:14:26.091Z,20.81
2023-10-11T14:16:53.955Z,20.84
2023-10-11T14:19:25.995Z,20.89
2023-10-11T14:21:53.408Z,20.79
2023-10-11T14:24:20.790Z,20.82
2023-10-11T14:26:48.924Z,20.88
2023-10-11T14:29:17.375Z,20.83
2023-10-11T14:31:44.612Z,20.70
2023-10-11T14:34:12.231Z,20.68
2023-10-11T14:36:42.500Z,20.76
2023-10-11T14:39:19.594Z,20.71
2023-10-11T14:41:52.126Z,20.68
2023-10-11T14:44:19.172Z,20.66
2023-10-11T14:46:46.288Z,20.63
2023-10-11T14:49:13.270Z,20.62
2023-10-11T14:51:41.217Z,20.58
2023-10-11T14:54:08.033Z,20.61
2023-10-11T14:56:35.417Z,20.49
2023-10-11T14:59:02.653Z,20.52
2023-10-11T15:01:35.004Z,20.40
2023-10-11T15:04:10.927Z,20.34
2023-10-11T15:06:47.085Z,20.32
2023-10-11T15:09:15.011Z,20.36
2023-10-11T15:11:41.717Z,20.31
2023-10-11T15:14:08.486Z,20.34
2023-10-11T15:16:36.882Z,20.26
2023-10-11T15:19:10.869Z,20.32
2023-10-11T15:21:40.665Z,20.23
2023-10-11T15:24:14.541Z,20.13
2023-10-11T15:26:41.600Z,20.13
2023-10-11T15:29:08.255Z,20.15
2023-10-11T15:31:35.481Z,20.10
2023-10-11T15:34:05.170Z,20.15
2023-10-11T15:36:31.923Z,20.03
2023-10-11T15:38:58.856Z,19.89
2023-10-11T15:41:25.619Z,19.77
2023-10-11T15:43:53.424Z,19.86
2023-10-11T15:46:23.082Z,19.77
2023-10-11T15:48:50.881Z,19.70
2023-10-11T15:51:20.645Z,19.66
2023-10-11T15:53:47.209Z,19.75
2023-10-11T15:56:15.905Z,19.74
2023-10-11T15:58:45.545Z,19.71
2023-10-11T16:01:15.640Z,19.57
2023-10-11T16:03:45.456Z,19.51
2023-10-11T16:06:13.643Z,19.47
2023-10-11T16:08:40.481Z,19.46
2023-10-11T16:11:14.585Z,19.35
2023-10-11T16:13:42.466Z,19.27
2023-10-11T16:16:09.818Z,19.22
2023-10-11T16:18:38.389Z,19.18
2023-10-11T16:21:05.113Z,19.12
2023-10-11T16:23:33.624Z,19.12
2023-10-11T16:26:02.483Z,19.12
2023-10-11T16:28:31.182Z,19.09
2023-10-11T16:30:59.393Z,19.10
2023-10-11T16:33:27.767Z,19.16
2023-10-11T16:35:55.073Z,19.11
2023-10-11T16:38:22.185Z,19.12
2023-10-11T16:40:49.114Z,19.17
2023-10-11T16:43:15.773Z,19.17
2023-10-11T16:45:42.974Z,19.18
2023-10-11T16:48:13.984Z,19.08
2023-10-11T16:50:41.427Z,19.07
2023-10-11T16:53:09.371Z,19.10
2023-10-11T16:55:37.000Z,19.09
2023-10-11T16:58:06.843Z,19.05
2023-10-11T17:00:36.316Z,19.06
2023-10-11T17:03:04.671Z,19.00
2023-10-11T17:05:35.638Z,19.03
2023-10-11T17:08:02.979Z,19.13
2023-10-11T17:10:32.178Z,19.11
2023-10-11T17:13:00.396Z,19.09
2023-10-11T17:15:27.315Z,19.11
2023-10-11T17:17:55.043Z,19.10
2023-10-11T17:20:26.069Z,19.11
2023-10-11T17:22:53.493Z,19.15
2023-10-11T17:25:21.337Z,19.15
2023-10-11T17:27:51.594Z,19.18
2023-10-11T17:30:23.034Z,19.19
2023-10-11T17:32:49.738Z,19.26
2023-10-11T17:35:17.298Z,19.30
2023-10-11T17:37:48.174Z,19.24
2023-10-11T17:40:19.323Z,19.27
2023-10-11T17:42:47.258Z,19.28
2023-10-11T17:45:15.182Z,19.34
2023-10-11T17:47:44.425Z,19.12
2023-10-11T17:50:14.697Z,19.14
2023-10-11T17:52:42.777Z,19.15
2023-10-11T17:55:15.336Z,19.20
2023-10-11T17:57:46.467Z,19.18
2023-10-11T18:00:28.087Z,19.11
2023-10-11T18:02:56.285Z,19.15
2023-10-11T18:05:23.454Z,19.09
2023-10-11T18:07:51.446Z,19.11
2023-10-11T18:10:19.923Z,19.19
2023-10-11T18:12:48.770Z,19.23
2023-10-11T18:15:19.002Z,19.18
2023-10-11T18:17:50.661Z,19.25
2023-10-11T18:20:22.115Z,19.08
2023-10-11T18:22:49.337Z,19.16
2023-10-11T18:25:17.840Z,19.21
2023-10-11T18:27:46.774Z,19.24
2023-10-11T18:30:14.567Z,19.24
2023-10-11T18:32:41.833Z,19.19
2023-10-11T18:35:09.334Z,19.28
2023-10-11T18:37:37.099Z,19.21
2023-10-11T18:40:09.256Z,19.12
2023-10-11T18:42:41.189Z,19.09
2023-10-11T18:45:12.713Z,19.02
2023-10-11T18:47:41.030Z,19.06
2023-10-11T18:50:08.286Z,19.10
2023-10-11T18:52:37.559Z,19.03
2023-10-11T18:55:09.769Z,19.03
2023-10-11T18:57:37.425Z,18.97
2023-10-11T19:00:31.889Z,18.90
2023-10-11T19:02:58.478Z,18.94
2023-10-11T19:05:27.852Z,18.96
2023-10-11T19:07:59.935Z,19.06
2023-10-11T19:10:30.984Z,18.97
2023-10-11T19:12:59.008Z,18.99
2023-10-11T19:15:30.313Z,18.89
2023-10-11T19:17:57.598Z,18.87
2023-10-11T19:20:30.932Z,18.90
2023-10-11T19:23:01.853Z,18.83
2023-10-11T19:25:30.015Z,18.89
2023-10-11T19:27:59.652Z,18.82
2023-10-11T19:30:26.595Z,18.62
2023-10-11T19:32:53.199Z,18.49
2023-10-11T19:35:25.017Z,18.56
2023-10-11T19:37:52.573Z,18.48
2023-10-11T19:40:39.845Z,18.35
2023-10-11T19:43:07.702Z,18.25
2023-10-11T19:45:34.556Z,18.15
2023-10-11T19:48:01.155Z,18.16
2023-10-11T19:50:28.095Z,18.16
2023-10-11T19:52:55.910Z,18.19
2023-10-11T19:55:23.730Z,18.10
2023-10-11T19:57:55.307Z,18.17
2023-10-11T20:00:23.950Z,18.14
2023-10-11T20:02:52.054Z,18.09
2023-10-11T20:05:21.691Z,18.10
2023-10-11T20:07:48.929Z,18.08
2023-10-11T20:10:16.259Z,18.12
2023-10-11T20:12:46.343Z,18.05
2023-10-11T20:15:14.316Z,18.09
2023-10-11T20:17:52.406Z,18.04
2023-10-11T20:20:20.864Z,18.01
2023-10-11T20:22:49.823Z,17.97
2023-10-11T20:25:19.543Z,18.02
2023-10-11T20:27:51.585Z,18.00
2023-10-11T20:30:20.816Z,18.07
2023-10-11T20:32:48.771Z,18.07
2023-10-11T20:35:16.819Z,18.06
2023-10-11T20:37:43.599Z,18.09
2023-10-11T20:40:14.478Z,18.10
2023-10-11T20:42:43.232Z,18.13
2023-10-11T20:45:16.402Z,18.09
2023-10-11T20:47:44.574Z,18.02
2023-10-11T20:50:17.158Z,18.05
2023-10-11T20:52:51.510Z,18.05
2023-10-11T20:55:24.459Z,17.88
2023-10-11T20:58:15.324Z,17.94
2023-10-11T21:00:50.002Z,17.95
2023-10-11T21:03:21.700Z,17.99
2023-10-11T21:05:52.834Z,17.96
2023-10-11T21:08:22.866Z,17.85
2023-10-11T21:10:50.405Z,17.87
2023-10-11T21:13:22.824Z,17.84
2023-10-11T21:15:51.808Z,17.81
2023-10-11T21:18:22.333Z,17.91
2023-10-11T21:20:53.187Z,17.84
2023-10-11T21:23:21.561Z,17.86
2023-10-11T21:25:56.782Z,17.87
2023-10-11T21:28:25.249Z,17.81
2023-10-11T21:30:52.134Z,17.77
2023-10-11T21:33:19.649Z,17.85
2023-10-11T21:35:46.635Z,17.81
2023-10-11T21:38:13.669Z,17.82
2023-10-11T21:40:43.098Z,17.77
2023-10-11T21:43:13.701Z,17.73
2023-10-11T21:45:41.451Z,17.72
2023-10-11T21:48:10.789Z,17.71
2023-10-11T21:50:38.469Z,17.64
2023-10-11T21:53:05.328Z,17.73
2023-10-11T21:55:33.733Z,17.73
2023-10-11T21:58:00.754Z,17.70
2023-10-11T22:00:47.952Z,17.69
2023-10-11T22:03:21.792Z,17.69
2023-10-11T22:05:51.935Z,17.69
2023-10-11T22:08:20.307Z,17.64
2023-10-11T22:10:46.978Z,17.66
2023-10-11T22:13:21.088Z,17.63
2023-10-11T22:15:48.412Z,17.69
2023-10-11T22:18:17.983Z,17.68
2023-10-11T22:20:47.432Z,17.58
2023-10-11T22:23:14.377Z,17.62
2023-10-11T22:25:42.462Z,17.72
2023-10-11T22:28:09.660Z,17.70
2023-10-11T22:30:41.616Z,17.61
2023-10-11T22:33:11.276Z,17.65
2023-10-11T22:35:43.712Z,17.68
2023-10-11T22:38:10.646Z,17.69
2023-10-11T22:40:40.915Z,17.65
2023-10-11T22:45:40.189Z,17.64
2023-10-11T22:48:07.224Z,17.71
2023-10-11T22:50:34.885Z,17.74
2023-10-11T22:53:02.717Z,17.69
2023-10-11T22:55:33.152Z,17.72
2023-10-11T22:58:03.812Z,17.67
2023-10-11T23:00:34.242Z,17.61
2023-10-11T23:03:02.566Z,17.57
2023-10-11T23:05:31.661Z,17.54
2023-10-11T23:07:58.864Z,17.52
2023-10-11T23:10:27.148Z,17.53
2023-10-11T23:12:57.597Z,17.49
2023-10-11T23:15:34.991Z,17.34
2023-10-11T23:18:14.472Z,17.45
2023-10-11T23:20:47.122Z,17.47
2023-10-11T23:23:22.364Z,17.42
2023-10-11T23:25:59.377Z,17.41
2023-10-11T23:28:26.443Z,17.43
2023-10-11T23:30:56.403Z,17.40
2023-10-11T23:33:35.330Z,17.36
2023-10-11T23:36:11.793Z,17.43
2023-10-11T23:38:51.587Z,17.40
2023-10-11T23:41:21.157Z,17.41
2023-10-11T23:44:00.408Z,17.39
2023-10-11T23:46:36.758Z,17.37
2023-10-11T23:49:09.938Z,17.27
2023-10-11T23:51:40.941Z,17.35
2023-10-11T23:54:12.539Z,17.18
2023-10-11T23:56:45.453Z,17.16
2023-10-11T23:59:17.730Z,17.17
